sensor_id;sensor_type;location;lat;lon;timestamp;P1;durP1;ratioP1;P2;durP2;ratioP2
33347;SDS011;19707;51.158;17.124;2022-08-27T00:02:18;13.58;;;8.03;;
33347;SDS011;19707;51.158;17.124;2022-08-27T00:05:21;17.37;;;8.08;;
33347;SDS011;19707;51.158;17.124;2022-08-27T00:08:22;15.08;;;7.55;;
33347;SDS011;19707;51.158;17.124;2022-08-27T00:11:24;14.40;;;8.00;;
33347;SDS011;19707;51.158;17.124;2022-08-27T00:14:26;13.65;;;8.48;;
33347;SDS011;19707;51.158;17.124;2022-08-27T00:17:28;22.67;;;9.18;;
33347;SDS011;19707;51.158;17.124;2022-08-27T00:20:30;14.90;;;7.85;;
33347;SDS011;19707;51.158;17.124;2022-08-27T00:23:31;13.35;;;6.92;;
33347;SDS011;19707;51.158;17.124;2022-08-27T00:26:32;13.90;;;7.47;;
33347;SDS011;19707;51.158;17.124;2022-08-27T00:29:34;12.93;;;6.55;;
33347;SDS011;19707;51.158;17.124;2022-08-27T00:32:36;20.43;;;7.45;;
33347;SDS011;19707;51.158;17.124;2022-08-27T00:35:38;12.58;;;6.62;;
33347;SDS011;19707;51.158;17.124;2022-08-27T00:38:40;13.68;;;7.58;;
33347;SDS011;19707;51.158;17.124;2022-08-27T00:41:41;10.72;;;7.05;;
33347;SDS011;19707;51.158;17.124;2022-08-27T00:44:43;10.72;;;6.78;;
33347;SDS011;19707;51.158;17.124;2022-08-27T00:47:45;13.08;;;7.08;;
33347;SDS011;19707;51.158;17.124;2022-08-27T00:50:53;12.70;;;7.40;;
33347;SDS011;19707;51.158;17.124;2022-08-27T00:53:56;16.05;;;7.95;;
33347;SDS011;19707;51.158;17.124;2022-08-27T00:56:59;15.30;;;6.92;;
33347;SDS011;19707;51.158;17.124;2022-08-27T01:00:01;10.80;;;7.50;;
33347;SDS011;19707;51.158;17.124;2022-08-27T01:06:09;12.45;;;7.80;;
33347;SDS011;19707;51.158;17.124;2022-08-27T01:09:11;13.45;;;8.08;;
33347;SDS011;19707;51.158;17.124;2022-08-27T01:12:15;15.43;;;8.47;;
33347;SDS011;19707;51.158;17.124;2022-08-27T01:15:16;10.03;;;7.55;;
33347;SDS011;19707;51.158;17.124;2022-08-27T01:18:19;15.78;;;7.28;;
33347;SDS011;19707;51.158;17.124;2022-08-27T01:21:29;16.48;;;8.08;;
33347;SDS011;19707;51.158;17.124;2022-08-27T01:24:37;12.23;;;8.13;;
33347;SDS011;19707;51.158;17.124;2022-08-27T01:27:44;11.43;;;8.33;;
33347;SDS011;19707;51.158;17.124;2022-08-27T01:30:45;16.15;;;7.47;;
33347;SDS011;19707;51.158;17.124;2022-08-27T01:33:54;19.65;;;7.83;;
33347;SDS011;19707;51.158;17.124;2022-08-27T01:37:00;11.53;;;8.35;;
33347;SDS011;19707;51.158;17.124;2022-08-27T01:40:02;15.13;;;7.45;;
33347;SDS011;19707;51.158;17.124;2022-08-27T01:43:05;17.20;;;8.23;;
33347;SDS011;19707;51.158;17.124;2022-08-27T01:46:06;12.85;;;8.25;;
33347;SDS011;19707;51.158;17.124;2022-08-27T01:49:08;15.45;;;7.83;;
33347;SDS011;19707;51.158;17.124;2022-08-27T01:52:10;14.47;;;7.42;;
33347;SDS011;19707;51.158;17.124;2022-08-27T01:55:13;22.15;;;8.18;;
33347;SDS011;19707;51.158;17.124;2022-08-27T01:58:19;12.07;;;7.05;;
33347;SDS011;19707;51.158;17.124;2022-08-27T02:01:25;13.70;;;7.70;;
33347;SDS011;19707;51.158;17.124;2022-08-27T02:04:26;17.00;;;8.25;;
33347;SDS011;19707;51.158;17.124;2022-08-27T02:07:28;10.93;;;7.95;;
33347;SDS011;19707;51.158;17.124;2022-08-27T02:10:31;14.63;;;8.70;;
33347;SDS011;19707;51.158;17.124;2022-08-27T02:13:36;22.25;;;11.18;;
33347;SDS011;19707;51.158;17.124;2022-08-27T02:16:39;20.85;;;11.45;;
33347;SDS011;19707;51.158;17.124;2022-08-27T02:19:41;23.87;;;11.90;;
33347;SDS011;19707;51.158;17.124;2022-08-27T02:22:43;20.68;;;11.15;;
33347;SDS011;19707;51.158;17.124;2022-08-27T02:25:45;18.95;;;10.05;;
33347;SDS011;19707;51.158;17.124;2022-08-27T02:28:46;17.30;;;9.90;;
33347;SDS011;19707;51.158;17.124;2022-08-27T02:31:48;24.00;;;9.55;;
33347;SDS011;19707;51.158;17.124;2022-08-27T02:34:50;16.60;;;9.38;;
33347;SDS011;19707;51.158;17.124;2022-08-27T02:37:52;15.32;;;8.48;;
33347;SDS011;19707;51.158;17.124;2022-08-27T02:40:54;18.37;;;8.68;;
33347;SDS011;19707;51.158;17.124;2022-08-27T02:43:55;15.85;;;9.43;;
33347;SDS011;19707;51.158;17.124;2022-08-27T02:46:57;15.90;;;9.35;;
33347;SDS011;19707;51.158;17.124;2022-08-27T02:50:02;13.05;;;8.08;;
33347;SDS011;19707;51.158;17.124;2022-08-27T02:53:06;14.28;;;8.28;;
33347;SDS011;19707;51.158;17.124;2022-08-27T02:56:07;17.50;;;9.05;;
33347;SDS011;19707;51.158;17.124;2022-08-27T02:59:10;16.35;;;8.68;;
33347;SDS011;19707;51.158;17.124;2022-08-27T03:02:11;17.80;;;9.20;;
33347;SDS011;19707;51.158;17.124;2022-08-27T03:05:13;13.15;;;7.33;;
33347;SDS011;19707;51.158;17.124;2022-08-27T03:08:16;16.75;;;8.83;;
33347;SDS011;19707;51.158;17.124;2022-08-27T03:11:17;19.52;;;9.95;;
33347;SDS011;19707;51.158;17.124;2022-08-27T03:14:19;13.78;;;9.03;;
33347;SDS011;19707;51.158;17.124;2022-08-27T03:17:20;18.23;;;10.38;;
33347;SDS011;19707;51.158;17.124;2022-08-27T03:20:41;14.93;;;9.43;;
33347;SDS011;19707;51.158;17.124;2022-08-27T03:23:44;15.37;;;10.10;;
33347;SDS011;19707;51.158;17.124;2022-08-27T03:26:46;15.10;;;10.30;;
33347;SDS011;19707;51.158;17.124;2022-08-27T03:29:48;19.02;;;10.30;;
33347;SDS011;19707;51.158;17.124;2022-08-27T03:32:50;14.58;;;9.75;;
33347;SDS011;19707;51.158;17.124;2022-08-27T03:35:53;19.52;;;10.18;;
33347;SDS011;19707;51.158;17.124;2022-08-27T03:38:55;18.32;;;9.83;;
33347;SDS011;19707;51.158;17.124;2022-08-27T03:42:00;15.30;;;10.18;;
33347;SDS011;19707;51.158;17.124;2022-08-27T03:45:02;15.40;;;9.48;;
33347;SDS011;19707;51.158;17.124;2022-08-27T03:48:06;15.53;;;9.47;;
33347;SDS011;19707;51.158;17.124;2022-08-27T03:51:09;14.65;;;9.98;;
33347;SDS011;19707;51.158;17.124;2022-08-27T03:54:13;18.00;;;10.45;;
33347;SDS011;19707;51.158;17.124;2022-08-27T03:57:15;15.95;;;9.40;;
33347;SDS011;19707;51.158;17.124;2022-08-27T04:00:17;16.12;;;10.58;;
33347;SDS011;19707;51.158;17.124;2022-08-27T04:03:19;17.87;;;10.38;;
33347;SDS011;19707;51.158;17.124;2022-08-27T04:06:20;17.25;;;10.13;;
33347;SDS011;19707;51.158;17.124;2022-08-27T04:09:22;18.52;;;10.35;;
33347;SDS011;19707;51.158;17.124;2022-08-27T04:12:25;14.78;;;10.32;;
33347;SDS011;19707;51.158;17.124;2022-08-27T04:15:27;17.15;;;9.70;;
33347;SDS011;19707;51.158;17.124;2022-08-27T04:18:30;18.40;;;10.53;;
33347;SDS011;19707;51.158;17.124;2022-08-27T04:21:31;15.78;;;9.33;;
33347;SDS011;19707;51.158;17.124;2022-08-27T04:24:33;16.90;;;9.88;;
33347;SDS011;19707;51.158;17.124;2022-08-27T04:27:36;17.17;;;10.23;;
33347;SDS011;19707;51.158;17.124;2022-08-27T04:30:39;17.02;;;10.65;;
33347;SDS011;19707;51.158;17.124;2022-08-27T04:33:42;15.53;;;11.07;;
33347;SDS011;19707;51.158;17.124;2022-08-27T04:36:45;19.25;;;11.25;;
33347;SDS011;19707;51.158;17.124;2022-08-27T04:39:47;16.85;;;11.40;;
33347;SDS011;19707;51.158;17.124;2022-08-27T04:42:50;22.20;;;11.95;;
33347;SDS011;19707;51.158;17.124;2022-08-27T04:45:52;18.48;;;12.58;;
33347;SDS011;19707;51.158;17.124;2022-08-27T04:48:57;18.42;;;12.65;;
33347;SDS011;19707;51.158;17.124;2022-08-27T04:52:02;17.98;;;12.07;;
33347;SDS011;19707;51.158;17.124;2022-08-27T04:55:05;17.87;;;11.30;;
33347;SDS011;19707;51.158;17.124;2022-08-27T04:58:08;20.85;;;11.95;;
33347;SDS011;19707;51.158;17.124;2022-08-27T05:01:14;18.35;;;11.68;;
33347;SDS011;19707;51.158;17.124;2022-08-27T05:04:22;15.63;;;11.55;;
33347;SDS011;19707;51.158;17.124;2022-08-27T05:07:23;18.65;;;12.33;;
33347;SDS011;19707;51.158;17.124;2022-08-27T05:10:25;18.35;;;11.97;;
33347;SDS011;19707;51.158;17.124;2022-08-27T05:13:27;18.50;;;11.28;;
33347;SDS011;19707;51.158;17.124;2022-08-27T05:16:29;17.12;;;11.63;;
33347;SDS011;19707;51.158;17.124;2022-08-27T05:19:30;21.68;;;12.88;;
33347;SDS011;19707;51.158;17.124;2022-08-27T05:22:32;21.87;;;12.93;;
33347;SDS011;19707;51.158;17.124;2022-08-27T05:25:36;28.83;;;13.38;;
33347;SDS011;19707;51.158;17.124;2022-08-27T05:28:42;19.98;;;12.53;;
33347;SDS011;19707;51.158;17.124;2022-08-27T05:31:43;19.62;;;12.28;;
33347;SDS011;19707;51.158;17.124;2022-08-27T05:34:47;16.50;;;12.23;;
33347;SDS011;19707;51.158;17.124;2022-08-27T05:37:48;18.98;;;11.83;;
33347;SDS011;19707;51.158;17.124;2022-08-27T05:40:49;19.70;;;12.35;;
33347;SDS011;19707;51.158;17.124;2022-08-27T05:43:51;18.40;;;11.88;;
33347;SDS011;19707;51.158;17.124;2022-08-27T05:46:54;15.53;;;12.05;;
33347;SDS011;19707;51.158;17.124;2022-08-27T05:49:55;17.17;;;12.35;;
33347;SDS011;19707;51.158;17.124;2022-08-27T05:52:56;22.10;;;11.80;;
33347;SDS011;19707;51.158;17.124;2022-08-27T05:55:58;22.45;;;11.60;;
33347;SDS011;19707;51.158;17.124;2022-08-27T05:59:00;21.27;;;12.25;;
33347;SDS011;19707;51.158;17.124;2022-08-27T06:02:20;21.75;;;11.68;;
33347;SDS011;19707;51.158;17.124;2022-08-27T06:05:21;16.30;;;11.75;;
33347;SDS011;19707;51.158;17.124;2022-08-27T06:08:22;18.48;;;12.40;;
33347;SDS011;19707;51.158;17.124;2022-08-27T06:11:24;16.17;;;12.10;;
33347;SDS011;19707;51.158;17.124;2022-08-27T06:14:26;20.75;;;11.83;;
33347;SDS011;19707;51.158;17.124;2022-08-27T06:17:27;19.62;;;11.40;;
33347;SDS011;19707;51.158;17.124;2022-08-27T06:20:30;21.90;;;10.32;;
33347;SDS011;19707;51.158;17.124;2022-08-27T06:23:31;15.98;;;11.68;;
33347;SDS011;19707;51.158;17.124;2022-08-27T06:26:33;17.50;;;10.93;;
33347;SDS011;19707;51.158;17.124;2022-08-27T06:29:36;17.32;;;11.25;;
33347;SDS011;19707;51.158;17.124;2022-08-27T06:32:37;18.50;;;10.90;;
33347;SDS011;19707;51.158;17.124;2022-08-27T06:35:38;17.80;;;10.38;;
33347;SDS011;19707;51.158;17.124;2022-08-27T06:38:39;23.90;;;11.90;;
33347;SDS011;19707;51.158;17.124;2022-08-27T06:41:42;14.93;;;10.18;;
33347;SDS011;19707;51.158;17.124;2022-08-27T06:44:44;14.58;;;10.45;;
33347;SDS011;19707;51.158;17.124;2022-08-27T06:47:48;16.52;;;10.53;;
33347;SDS011;19707;51.158;17.124;2022-08-27T06:50:49;16.55;;;9.90;;
33347;SDS011;19707;51.158;17.124;2022-08-27T06:53:51;14.23;;;9.28;;
33347;SDS011;19707;51.158;17.124;2022-08-27T06:56:56;15.68;;;10.60;;
33347;SDS011;19707;51.158;17.124;2022-08-27T06:59:59;17.37;;;9.80;;
33347;SDS011;19707;51.158;17.124;2022-08-27T07:03:01;14.80;;;9.43;;
33347;SDS011;19707;51.158;17.124;2022-08-27T07:06:04;18.73;;;9.70;;
33347;SDS011;19707;51.158;17.124;2022-08-27T07:09:07;14.87;;;9.48;;
33347;SDS011;19707;51.158;17.124;2022-08-27T07:12:09;11.85;;;9.13;;
33347;SDS011;19707;51.158;17.124;2022-08-27T07:15:11;15.53;;;9.90;;
33347;SDS011;19707;51.158;17.124;2022-08-27T07:18:12;15.18;;;10.23;;
33347;SDS011;19707;51.158;17.124;2022-08-27T07:21:13;17.73;;;9.68;;
33347;SDS011;19707;51.158;17.124;2022-08-27T07:24:15;16.87;;;10.32;;
33347;SDS011;19707;51.158;17.124;2022-08-27T07:27:17;18.57;;;9.10;;
33347;SDS011;19707;51.158;17.124;2022-08-27T07:30:18;21.65;;;9.85;;
33347;SDS011;19707;51.158;17.124;2022-08-27T07:33:19;26.60;;;10.30;;
33347;SDS011;19707;51.158;17.124;2022-08-27T07:36:21;21.68;;;9.38;;
33347;SDS011;19707;51.158;17.124;2022-08-27T07:39:23;18.27;;;9.63;;
33347;SDS011;19707;51.158;17.124;2022-08-27T07:42:24;16.67;;;9.25;;
33347;SDS011;19707;51.158;17.124;2022-08-27T07:45:45;12.35;;;9.53;;
33347;SDS011;19707;51.158;17.124;2022-08-27T07:48:48;15.25;;;8.83;;
33347;SDS011;19707;51.158;17.124;2022-08-27T07:51:50;15.90;;;9.75;;
33347;SDS011;19707;51.158;17.124;2022-08-27T07:54:52;12.90;;;8.83;;
33347;SDS011;19707;51.158;17.124;2022-08-27T07:57:53;14.28;;;8.85;;
33347;SDS011;19707;51.158;17.124;2022-08-27T08:00:55;12.53;;;8.55;;
33347;SDS011;19707;51.158;17.124;2022-08-27T08:03:56;12.60;;;8.03;;
33347;SDS011;19707;51.158;17.124;2022-08-27T08:07:01;15.88;;;8.58;;
33347;SDS011;19707;51.158;17.124;2022-08-27T08:10:03;14.60;;;8.58;;
33347;SDS011;19707;51.158;17.124;2022-08-27T08:13:07;9.48;;;8.23;;
33347;SDS011;19707;51.158;17.124;2022-08-27T08:16:09;13.15;;;8.35;;
33347;SDS011;19707;51.158;17.124;2022-08-27T08:19:11;17.45;;;8.83;;
33347;SDS011;19707;51.158;17.124;2022-08-27T08:22:12;16.87;;;8.33;;
33347;SDS011;19707;51.158;17.124;2022-08-27T08:25:14;15.40;;;8.48;;
33347;SDS011;19707;51.158;17.124;2022-08-27T08:28:15;14.07;;;8.78;;
33347;SDS011;19707;51.158;17.124;2022-08-27T08:31:16;10.60;;;6.55;;
33347;SDS011;19707;51.158;17.124;2022-08-27T08:34:18;13.80;;;7.85;;
33347;SDS011;19707;51.158;17.124;2022-08-27T08:37:19;12.47;;;6.37;;
33347;SDS011;19707;51.158;17.124;2022-08-27T08:40:26;10.15;;;7.65;;
33347;SDS011;19707;51.158;17.124;2022-08-27T08:43:40;15.85;;;8.75;;
33347;SDS011;19707;51.158;17.124;2022-08-27T08:46:47;14.83;;;8.00;;
33347;SDS011;19707;51.158;17.124;2022-08-27T08:50:05;12.90;;;7.47;;
33347;SDS011;19707;51.158;17.124;2022-08-27T08:53:32;13.32;;;8.13;;
33347;SDS011;19707;51.158;17.124;2022-08-27T08:56:55;14.47;;;7.33;;
33347;SDS011;19707;51.158;17.124;2022-08-27T09:00:07;12.88;;;6.33;;
33347;SDS011;19707;51.158;17.124;2022-08-27T09:03:12;12.95;;;7.45;;
33347;SDS011;19707;51.158;17.124;2022-08-27T09:06:32;11.25;;;7.22;;
33347;SDS011;19707;51.158;17.124;2022-08-27T09:09:55;13.22;;;7.05;;
33347;SDS011;19707;51.158;17.124;2022-08-27T09:12:57;14.23;;;8.28;;
33347;SDS011;19707;51.158;17.124;2022-08-27T09:16:02;12.60;;;7.62;;
33347;SDS011;19707;51.158;17.124;2022-08-27T09:19:05;14.57;;;8.63;;
33347;SDS011;19707;51.158;17.124;2022-08-27T09:22:13;11.30;;;7.37;;
33347;SDS011;19707;51.158;17.124;2022-08-27T09:25:30;14.50;;;6.67;;
33347;SDS011;19707;51.158;17.124;2022-08-27T09:28:37;15.75;;;7.78;;
33347;SDS011;19707;51.158;17.124;2022-08-27T09:32:09;9.68;;;5.50;;
33347;SDS011;19707;51.158;17.124;2022-08-27T09:35:09;11.30;;;7.30;;
33347;SDS011;19707;51.158;17.124;2022-08-27T09:38:29;14.20;;;7.70;;
33347;SDS011;19707;51.158;17.124;2022-08-27T09:41:40;11.63;;;6.75;;
33347;SDS011;19707;51.158;17.124;2022-08-27T09:48:02;11.55;;;7.67;;
33347;SDS011;19707;51.158;17.124;2022-08-27T09:51:16;12.23;;;6.40;;
33347;SDS011;19707;51.158;17.124;2022-08-27T09:54:25;12.15;;;5.90;;
33347;SDS011;19707;51.158;17.124;2022-08-27T09:57:34;9.60;;;6.22;;
33347;SDS011;19707;51.158;17.124;2022-08-27T10:00:39;12.63;;;6.75;;
33347;SDS011;19707;51.158;17.124;2022-08-27T10:03:41;13.32;;;6.10;;
33347;SDS011;19707;51.158;17.124;2022-08-27T10:06:44;8.70;;;5.90;;
33347;SDS011;19707;51.158;17.124;2022-08-27T10:09:50;13.25;;;4.62;;
33347;SDS011;19707;51.158;17.124;2022-08-27T10:13:15;10.13;;;6.03;;
33347;SDS011;19707;51.158;17.124;2022-08-27T10:27:33;9.05;;;5.85;;
33347;SDS011;19707;51.158;17.124;2022-08-27T10:34:41;5.47;;;3.55;;
33347;SDS011;19707;51.158;17.124;2022-08-27T10:38:32;7.42;;;3.77;;
33347;SDS011;19707;51.158;17.124;2022-08-27T10:41:42;9.98;;;5.25;;
33347;SDS011;19707;51.158;17.124;2022-08-27T10:48:38;9.63;;;6.25;;
33347;SDS011;19707;51.158;17.124;2022-08-27T10:51:52;12.60;;;7.10;;
33347;SDS011;19707;51.158;17.124;2022-08-27T10:55:04;2.87;;;2.35;;
33347;SDS011;19707;51.158;17.124;2022-08-27T11:05:27;9.20;;;5.70;;
33347;SDS011;19707;51.158;17.124;2022-08-27T11:08:40;10.00;;;5.53;;
33347;SDS011;19707;51.158;17.124;2022-08-27T11:12:00;7.75;;;5.10;;
33347;SDS011;19707;51.158;17.124;2022-08-27T11:14:57;5.65;;;4.55;;
33347;SDS011;19707;51.158;17.124;2022-08-27T11:21:50;10.23;;;3.98;;
33347;SDS011;19707;51.158;17.124;2022-08-27T11:28:53;8.23;;;3.83;;
33347;SDS011;19707;51.158;17.124;2022-08-27T11:42:40;8.53;;;4.92;;
33347;SDS011;19707;51.158;17.124;2022-08-27T11:45:57;5.05;;;4.25;;
33347;SDS011;19707;51.158;17.124;2022-08-27T11:49:05;3.22;;;1.65;;
33347;SDS011;19707;51.158;17.124;2022-08-27T11:52:07;5.75;;;5.08;;
33347;SDS011;19707;51.158;17.124;2022-08-27T11:58:28;8.35;;;4.87;;
33347;SDS011;19707;51.158;17.124;2022-08-27T12:01:30;7.05;;;4.12;;
33347;SDS011;19707;51.158;17.124;2022-08-27T12:04:39;6.97;;;3.83;;
33347;SDS011;19707;51.158;17.124;2022-08-27T12:07:41;9.35;;;5.35;;
33347;SDS011;19707;51.158;17.124;2022-08-27T12:11:34;9.50;;;5.08;;
33347;SDS011;19707;51.158;17.124;2022-08-27T12:17:33;7.47;;;5.28;;
33347;SDS011;19707;51.158;17.124;2022-08-27T12:27:56;13.28;;;5.42;;
33347;SDS011;19707;51.158;17.124;2022-08-27T12:30:59;8.18;;;4.95;;
33347;SDS011;19707;51.158;17.124;2022-08-27T12:34:02;11.60;;;5.93;;
33347;SDS011;19707;51.158;17.124;2022-08-27T12:37:04;11.55;;;5.15;;
33347;SDS011;19707;51.158;17.124;2022-08-27T12:40:07;13.68;;;4.97;;
33347;SDS011;19707;51.158;17.124;2022-08-27T12:43:26;9.40;;;4.62;;
33347;SDS011;19707;51.158;17.124;2022-08-27T12:46:32;6.05;;;3.02;;
33347;SDS011;19707;51.158;17.124;2022-08-27T13:00:11;4.73;;;3.73;;
33347;SDS011;19707;51.158;17.124;2022-08-27T13:03:20;4.47;;;2.80;;
33347;SDS011;19707;51.158;17.124;2022-08-27T13:06:32;7.00;;;3.75;;
33347;SDS011;19707;51.158;17.124;2022-08-27T13:09:36;3.42;;;2.92;;
33347;SDS011;19707;51.158;17.124;2022-08-27T13:12:40;11.48;;;4.60;;
33347;SDS011;19707;51.158;17.124;2022-08-27T13:16:02;7.25;;;4.45;;
33347;SDS011;19707;51.158;17.124;2022-08-27T13:18:58;8.88;;;3.67;;
33347;SDS011;19707;51.158;17.124;2022-08-27T13:21:59;7.42;;;3.42;;
33347;SDS011;19707;51.158;17.124;2022-08-27T13:25:04;13.32;;;5.97;;
33347;SDS011;19707;51.158;17.124;2022-08-27T13:28:11;9.35;;;5.42;;
33347;SDS011;19707;51.158;17.124;2022-08-27T13:31:15;15.28;;;5.45;;
33347;SDS011;19707;51.158;17.124;2022-08-27T13:34:17;5.55;;;4.58;;
33347;SDS011;19707;51.158;17.124;2022-08-27T13:37:32;8.05;;;4.50;;
33347;SDS011;19707;51.158;17.124;2022-08-27T13:40:56;9.08;;;4.75;;
33347;SDS011;19707;51.158;17.124;2022-08-27T13:44:08;6.60;;;4.22;;
33347;SDS011;19707;51.158;17.124;2022-08-27T13:47:22;10.08;;;5.05;;
33347;SDS011;19707;51.158;17.124;2022-08-27T13:50:23;10.43;;;5.12;;
33347;SDS011;19707;51.158;17.124;2022-08-27T13:53:29;6.72;;;4.50;;
33347;SDS011;19707;51.158;17.124;2022-08-27T14:03:30;6.47;;;4.95;;
33347;SDS011;19707;51.158;17.124;2022-08-27T14:06:41;5.60;;;4.20;;
33347;SDS011;19707;51.158;17.124;2022-08-27T14:09:48;8.65;;;4.45;;
33347;SDS011;19707;51.158;17.124;2022-08-27T14:12:59;5.72;;;3.55;;
33347;SDS011;19707;51.158;17.124;2022-08-27T14:19:28;7.03;;;3.90;;
33347;SDS011;19707;51.158;17.124;2022-08-27T14:22:32;5.33;;;4.10;;
33347;SDS011;19707;51.158;17.124;2022-08-27T14:25:33;7.10;;;4.20;;
33347;SDS011;19707;51.158;17.124;2022-08-27T14:28:35;6.78;;;4.87;;
33347;SDS011;19707;51.158;17.124;2022-08-27T14:31:36;9.25;;;4.45;;
33347;SDS011;19707;51.158;17.124;2022-08-27T14:34:37;5.78;;;3.90;;
33347;SDS011;19707;51.158;17.124;2022-08-27T14:37:39;5.95;;;3.98;;
33347;SDS011;19707;51.158;17.124;2022-08-27T14:40:41;7.97;;;4.12;;
33347;SDS011;19707;51.158;17.124;2022-08-27T14:43:44;5.03;;;3.83;;
33347;SDS011;19707;51.158;17.124;2022-08-27T14:46:45;5.45;;;3.90;;
33347;SDS011;19707;51.158;17.124;2022-08-27T14:49:46;7.03;;;4.30;;
33347;SDS011;19707;51.158;17.124;2022-08-27T14:52:48;4.62;;;4.22;;
33347;SDS011;19707;51.158;17.124;2022-08-27T14:55:50;5.10;;;3.27;;
33347;SDS011;19707;51.158;17.124;2022-08-27T14:58:51;6.42;;;3.60;;
33347;SDS011;19707;51.158;17.124;2022-08-27T15:01:53;5.12;;;3.92;;
33347;SDS011;19707;51.158;17.124;2022-08-27T15:04:56;6.97;;;4.22;;
33347;SDS011;19707;51.158;17.124;2022-08-27T15:07:57;4.58;;;3.87;;
33347;SDS011;19707;51.158;17.124;2022-08-27T15:10:59;5.72;;;3.40;;
33347;SDS011;19707;51.158;17.124;2022-08-27T15:14:02;5.58;;;4.20;;
33347;SDS011;19707;51.158;17.124;2022-08-27T15:17:07;4.97;;;4.47;;
33347;SDS011;19707;51.158;17.124;2022-08-27T15:20:09;10.75;;;7.15;;
33347;SDS011;19707;51.158;17.124;2022-08-27T15:23:13;5.75;;;4.62;;
33347;SDS011;19707;51.158;17.124;2022-08-27T15:26:15;5.80;;;3.83;;
33347;SDS011;19707;51.158;17.124;2022-08-27T15:29:17;7.75;;;4.50;;
33347;SDS011;19707;51.158;17.124;2022-08-27T15:32:24;5.72;;;4.40;;
33347;SDS011;19707;51.158;17.124;2022-08-27T15:35:28;4.55;;;3.83;;
33347;SDS011;19707;51.158;17.124;2022-08-27T15:38:29;7.78;;;4.25;;
33347;SDS011;19707;51.158;17.124;2022-08-27T15:41:30;8.80;;;6.25;;
33347;SDS011;19707;51.158;17.124;2022-08-27T15:44:33;9.88;;;6.12;;
33347;SDS011;19707;51.158;17.124;2022-08-27T15:47:35;9.85;;;4.85;;
33347;SDS011;19707;51.158;17.124;2022-08-27T15:50:37;5.08;;;3.90;;
33347;SDS011;19707;51.158;17.124;2022-08-27T15:53:39;4.25;;;2.92;;
33347;SDS011;19707;51.158;17.124;2022-08-27T15:56:42;5.50;;;3.45;;
33347;SDS011;19707;51.158;17.124;2022-08-27T15:59:43;3.67;;;2.52;;
33347;SDS011;19707;51.158;17.124;2022-08-27T16:02:44;7.47;;;3.22;;
33347;SDS011;19707;51.158;17.124;2022-08-27T16:05:47;5.40;;;3.90;;
33347;SDS011;19707;51.158;17.124;2022-08-27T16:08:48;6.20;;;2.95;;
33347;SDS011;19707;51.158;17.124;2022-08-27T16:11:51;6.90;;;3.00;;
33347;SDS011;19707;51.158;17.124;2022-08-27T16:14:52;6.78;;;4.58;;
33347;SDS011;19707;51.158;17.124;2022-08-27T16:17:57;7.35;;;4.78;;
33347;SDS011;19707;51.158;17.124;2022-08-27T16:20:59;7.95;;;3.77;;
33347;SDS011;19707;51.158;17.124;2022-08-27T16:24:04;7.83;;;3.80;;
33347;SDS011;19707;51.158;17.124;2022-08-27T16:27:08;7.50;;;4.28;;
33347;SDS011;19707;51.158;17.124;2022-08-27T16:30:10;10.48;;;4.70;;
33347;SDS011;19707;51.158;17.124;2022-08-27T16:33:13;6.87;;;3.92;;
33347;SDS011;19707;51.158;17.124;2022-08-27T16:36:15;7.37;;;3.67;;
33347;SDS011;19707;51.158;17.124;2022-08-27T16:39:16;6.80;;;3.85;;
33347;SDS011;19707;51.158;17.124;2022-08-27T16:42:17;5.33;;;3.58;;
33347;SDS011;19707;51.158;17.124;2022-08-27T16:45:20;7.35;;;3.85;;
33347;SDS011;19707;51.158;17.124;2022-08-27T16:48:23;5.35;;;4.10;;
33347;SDS011;19707;51.158;17.124;2022-08-27T16:51:43;5.65;;;5.03;;
33347;SDS011;19707;51.158;17.124;2022-08-27T16:54:45;7.70;;;5.53;;
33347;SDS011;19707;51.158;17.124;2022-08-27T16:57:46;6.85;;;5.33;;
33347;SDS011;19707;51.158;17.124;2022-08-27T17:00:48;9.23;;;5.05;;
33347;SDS011;19707;51.158;17.124;2022-08-27T17:03:54;5.03;;;3.05;;
33347;SDS011;19707;51.158;17.124;2022-08-27T17:06:58;9.65;;;3.72;;
33347;SDS011;19707;51.158;17.124;2022-08-27T17:09:59;8.40;;;5.35;;
33347;SDS011;19707;51.158;17.124;2022-08-27T17:13:01;8.08;;;4.70;;
33347;SDS011;19707;51.158;17.124;2022-08-27T17:16:03;9.50;;;6.40;;
33347;SDS011;19707;51.158;17.124;2022-08-27T17:19:05;6.75;;;6.00;;
33347;SDS011;19707;51.158;17.124;2022-08-27T17:22:06;9.28;;;5.92;;
33347;SDS011;19707;51.158;17.124;2022-08-27T17:25:09;10.80;;;6.17;;
33347;SDS011;19707;51.158;17.124;2022-08-27T17:28:12;11.55;;;5.60;;
33347;SDS011;19707;51.158;17.124;2022-08-27T17:31:14;8.90;;;6.12;;
33347;SDS011;19707;51.158;17.124;2022-08-27T17:34:22;7.90;;;6.45;;
33347;SDS011;19707;51.158;17.124;2022-08-27T17:37:24;10.98;;;7.47;;
33347;SDS011;19707;51.158;17.124;2022-08-27T17:40:26;8.40;;;7.12;;
33347;SDS011;19707;51.158;17.124;2022-08-27T17:43:27;13.60;;;7.15;;
33347;SDS011;19707;51.158;17.124;2022-08-27T17:46:28;8.85;;;6.67;;
33347;SDS011;19707;51.158;17.124;2022-08-27T17:49:30;11.75;;;7.53;;
33347;SDS011;19707;51.158;17.124;2022-08-27T17:52:31;12.68;;;6.85;;
33347;SDS011;19707;51.158;17.124;2022-08-27T17:55:34;10.35;;;6.70;;
33347;SDS011;19707;51.158;17.124;2022-08-27T17:58:36;14.53;;;6.42;;
33347;SDS011;19707;51.158;17.124;2022-08-27T18:01:37;10.18;;;5.90;;
33347;SDS011;19707;51.158;17.124;2022-08-27T18:04:40;9.10;;;6.62;;
33347;SDS011;19707;51.158;17.124;2022-08-27T18:07:41;9.60;;;6.92;;
33347;SDS011;19707;51.158;17.124;2022-08-27T18:10:43;7.25;;;6.28;;
33347;SDS011;19707;51.158;17.124;2022-08-27T18:13:45;12.40;;;7.65;;
33347;SDS011;19707;51.158;17.124;2022-08-27T18:16:50;13.00;;;7.30;;
33347;SDS011;19707;51.158;17.124;2022-08-27T18:19:52;13.30;;;7.97;;
33347;SDS011;19707;51.158;17.124;2022-08-27T18:22:53;10.32;;;8.98;;
33347;SDS011;19707;51.158;17.124;2022-08-27T18:25:55;9.63;;;6.75;;
33347;SDS011;19707;51.158;17.124;2022-08-27T18:28:56;10.82;;;8.10;;
33347;SDS011;19707;51.158;17.124;2022-08-27T18:31:58;18.87;;;9.15;;
33347;SDS011;19707;51.158;17.124;2022-08-27T18:35:00;14.10;;;7.53;;
33347;SDS011;19707;51.158;17.124;2022-08-27T18:38:06;12.45;;;8.50;;
33347;SDS011;19707;51.158;17.124;2022-08-27T18:41:07;13.83;;;11.22;;
33347;SDS011;19707;51.158;17.124;2022-08-27T18:44:09;14.15;;;7.95;;
33347;SDS011;19707;51.158;17.124;2022-08-27T18:47:11;11.55;;;8.83;;
33347;SDS011;19707;51.158;17.124;2022-08-27T18:50:13;13.70;;;8.18;;
33347;SDS011;19707;51.158;17.124;2022-08-27T18:53:15;16.77;;;10.63;;
33347;SDS011;19707;51.158;17.124;2022-08-27T18:56:19;13.70;;;8.73;;
33347;SDS011;19707;51.158;17.124;2022-08-27T18:59:21;19.10;;;9.75;;
33347;SDS011;19707;51.158;17.124;2022-08-27T19:02:24;12.88;;;9.70;;
33347;SDS011;19707;51.158;17.124;2022-08-27T19:05:26;23.60;;;13.30;;
33347;SDS011;19707;51.158;17.124;2022-08-27T19:08:28;16.50;;;12.07;;
33347;SDS011;19707;51.158;17.124;2022-08-27T19:11:30;17.40;;;11.20;;
33347;SDS011;19707;51.158;17.124;2022-08-27T19:14:31;16.27;;;10.20;;
33347;SDS011;19707;51.158;17.124;2022-08-27T19:17:33;12.55;;;5.67;;
33347;SDS011;19707;51.158;17.124;2022-08-27T19:20:35;19.37;;;12.63;;
33347;SDS011;19707;51.158;17.124;2022-08-27T19:23:36;24.05;;;15.38;;
33347;SDS011;19707;51.158;17.124;2022-08-27T19:26:39;21.30;;;12.30;;